Accueil
METAR-TAF:

METAR-TAF

Aéroports :

Cranfield, Angleterre

latitude: 52-04N, longitude: 000-37W, altitude: 111 m

Observation

Le bulletin a été fait il y a 7 heures et 9 minutes, à 15:50 UTC
Vent 8 kt de sud-ouest
Température 19°C
Humidité 56%
Pression 1022 hPa
Visibilité 10 km ou plus
pas de nuages en-dessous de 1500 mètres et pas de cumulonimbus.

METAR: EGTC 201550Z 23008KT CAVOK 19/10 Q1022

Heure: 23:59 (22:59 UTC)

Prévision

Le bulletin a été fait il y a 9 heures et 1 minutes, à 13:58 UTC
Prévision valable du 20 à 15 UTC au 20 à 17 UTC
Vent 8 kt de ouest/sud-ouest
Visibilité 10 km ou plus
Nuages épars à une hauteur de 4500 ft

TAF: EGTC 201358Z 2015/2017 25008KT 9999 SCT045

Observations et prévisions météorologiques de plus de 4000 aéroports (messages METAR et TAF).

Les stations disponibles sont représentées par des disques jaunes et rouges sur la carte.

Passer la souris dessus pour voir le nom de la station.

Cliquer dessus pour voir les observations et prévisions météorologiques.

Pour changer de carte: cliquez sur les boutons verts avec une croix noire pour zoomer, sur le bouton vert avec un tiret pour effectuer un zoom arrière, ou sur les flèches vertes pour les cartes adjacentes.


METAR-TAF: